createdAt,value
2017-10-01T00:01:22.727Z,4.57
2017-10-01T00:03:49.049Z,4.57
2017-10-01T00:06:15.290Z,5.87
2017-10-01T00:08:41.577Z,5.17
2017-10-01T00:11:08.906Z,4.93
2017-10-01T00:16:28.455Z,5.00
2017-10-01T00:18:54.708Z,6.60
2017-10-01T00:21:21.750Z,7.40
2017-10-01T00:23:49.194Z,8.40
2017-10-01T00:26:16.135Z,6.57
2017-10-01T00:28:42.414Z,5.00
2017-10-01T00:31:09.145Z,8.30
2017-10-01T00:33:35.454Z,4.60
2017-10-01T00:36:02.440Z,8.73
2017-10-01T00:38:29.159Z,6.83
2017-10-01T00:40:55.480Z,11.30
2017-10-01T00:43:21.745Z,5.87
2017-10-01T00:45:48.051Z,5.37
2017-10-01T00:48:15.247Z,5.43
2017-10-01T00:50:41.576Z,5.00
2017-10-01T00:53:08.230Z,4.60
2017-10-01T00:55:34.572Z,5.40
2017-10-01T00:58:01.628Z,8.47
2017-10-01T01:00:29.067Z,4.87
2017-10-01T01:02:55.371Z,7.43
2017-10-01T01:05:21.618Z,5.77
2017-10-01T01:07:47.973Z,6.30
2017-10-01T01:10:15.025Z,5.17
2017-10-01T01:12:42.074Z,6.13
2017-10-01T01:15:09.141Z,5.00
2017-10-01T01:17:35.394Z,5.90
2017-10-01T01:20:01.718Z,5.73
2017-10-01T01:22:28.396Z,5.83
2017-10-01T01:24:54.664Z,5.70
2017-10-01T01:27:21.001Z,5.70
2017-10-01T01:29:47.398Z,6.87
2017-10-01T01:32:13.758Z,6.53
2017-10-01T01:34:40.052Z,6.50
2017-10-01T01:37:06.461Z,7.53
2017-10-01T01:39:32.790Z,7.30
2017-10-01T01:41:59.066Z,8.13
2017-10-01T01:44:26.129Z,6.20
2017-10-01T01:46:52.437Z,6.20
2017-10-01T01:49:19.449Z,6.60
2017-10-01T01:51:45.743Z,5.97
2017-10-01T01:54:12.042Z,6.20
2017-10-01T01:56:39.025Z,5.40
2017-10-01T01:59:05.565Z,8.63
2017-10-01T02:01:31.869Z,7.97
2017-10-01T02:03:58.998Z,5.63
2017-10-01T02:06:25.342Z,10.57
2017-10-01T02:08:52.441Z,5.50
2017-10-01T02:11:18.794Z,8.83
2017-10-01T02:13:45.439Z,5.47
2017-10-01T02:16:11.753Z,6.90
2017-10-01T02:18:38.020Z,5.80
2017-10-01T02:21:04.383Z,4.30
2017-10-01T02:23:30.705Z,6.10
2017-10-01T02:25:56.993Z,6.53
2017-10-01T02:28:23.318Z,4.50
2017-10-01T02:30:49.595Z,9.70
2017-10-01T02:33:15.852Z,4.10
2017-10-01T02:35:42.494Z,4.17
2017-10-01T02:38:08.828Z,4.73
2017-10-01T02:40:35.114Z,4.67
2017-10-01T02:43:01.819Z,6.10
2017-10-01T02:45:28.077Z,4.60
2017-10-01T02:47:55.104Z,9.90
2017-10-01T02:50:21.834Z,4.77
2017-10-01T02:52:48.170Z,13.40
2017-10-01T02:55:14.569Z,4.17
2017-10-01T02:57:42.233Z,4.63
2017-10-01T03:00:08.645Z,4.17
2017-10-01T03:02:35.017Z,5.87
2017-10-01T03:05:01.673Z,4.83
2017-10-01T03:07:28.050Z,4.40
2017-10-01T03:09:54.364Z,5.13
2017-10-01T03:12:21.065Z,3.40
2017-10-01T03:14:47.342Z,3.93
2017-10-01T03:17:13.703Z,3.60
2017-10-01T03:19:40.026Z,3.40
2017-10-01T03:22:06.342Z,3.90
2017-10-01T03:24:32.640Z,7.87
2017-10-01T03:27:00.111Z,3.67
2017-10-01T03:29:26.383Z,3.90
2017-10-01T03:31:52.749Z,4.13
2017-10-01T03:34:19.753Z,4.07
2017-10-01T03:36:46.050Z,3.50
2017-10-01T03:39:12.790Z,4.00
2017-10-01T03:41:39.089Z,3.77
2017-10-01T03:44:05.445Z,4.40
2017-10-01T03:46:31.768Z,3.47
2017-10-01T03:48:58.780Z,5.43
2017-10-01T03:51:25.111Z,6.30
2017-10-01T03:53:51.519Z,6.17
2017-10-01T03:56:17.842Z,5.23
2017-10-01T03:58:44.190Z,6.20
2017-10-01T04:01:10.498Z,3.47
2017-10-01T04:03:37.224Z,4.10
2017-10-01T04:06:03.464Z,3.67
2017-10-01T04:08:29.702Z,4.60
2017-10-01T04:10:55.945Z,3.80
2017-10-01T04:13:22.165Z,8.73
2017-10-01T04:15:48.458Z,4.17
2017-10-01T04:18:15.548Z,5.43
2017-10-01T04:20:41.809Z,4.80
2017-10-01T04:23:08.056Z,4.73
2017-10-01T04:25:34.327Z,4.87
2017-10-01T04:28:01.046Z,6.03
2017-10-01T04:30:27.329Z,7.63
2017-10-01T04:32:53.601Z,8.70
2017-10-01T04:35:19.913Z,5.40
2017-10-01T04:37:46.949Z,5.87
2017-10-01T04:40:13.312Z,5.53
2017-10-01T04:42:39.577Z,10.83
2017-10-01T04:45:05.854Z,8.60
2017-10-01T04:47:32.858Z,7.83
2017-10-01T04:49:59.178Z,9.17
2017-10-01T04:52:25.475Z,11.53
2017-10-01T04:54:51.758Z,7.53
2017-10-01T04:57:18.022Z,7.20
2017-10-01T04:59:45.109Z,11.97
2017-10-01T05:02:11.435Z,7.50
2017-10-01T05:04:41.652Z,8.60
2017-10-01T05:07:07.949Z,7.20
2017-10-01T05:09:34.962Z,9.03
2017-10-01T05:12:02.348Z,12.93
2017-10-01T05:14:28.590Z,9.63
2017-10-01T05:16:55.638Z,8.60
2017-10-01T05:19:22.006Z,12.00
2017-10-01T05:21:48.349Z,10.67
2017-10-01T05:24:14.606Z,12.80
2017-10-01T05:26:40.869Z,14.30
2017-10-01T05:29:07.164Z,11.40
2017-10-01T05:31:33.473Z,18.13
2017-10-01T05:33:59.794Z,12.77
2017-10-01T05:36:26.165Z,13.20
2017-10-01T05:38:53.505Z,13.70
2017-10-01T05:41:19.759Z,10.97
2017-10-01T05:43:46.726Z,18.47
2017-10-01T05:46:13.371Z,13.10
2017-10-01T05:48:39.718Z,11.93
2017-10-01T05:51:05.983Z,11.17
2017-10-01T05:53:32.295Z,12.00
2017-10-01T05:55:58.521Z,18.50
2017-10-01T05:58:24.803Z,16.33
2017-10-01T06:00:52.180Z,18.67
2017-10-01T06:03:18.482Z,16.90
2017-10-01T06:05:45.460Z,21.13
2017-10-01T06:08:11.771Z,18.07
2017-10-01T06:10:38.135Z,13.70
2017-10-01T06:13:04.437Z,13.60
2017-10-01T06:15:31.132Z,16.50
2017-10-01T06:17:57.339Z,20.83
2017-10-01T06:20:23.578Z,18.57
2017-10-01T06:22:50.230Z,21.67
2017-10-01T06:25:16.511Z,18.23
2017-10-01T06:27:42.735Z,19.30
2017-10-01T06:30:09.063Z,21.30
2017-10-01T06:32:35.384Z,19.47
2017-10-01T06:35:01.631Z,18.57
2017-10-01T06:37:27.943Z,25.20
2017-10-01T06:39:54.197Z,22.37
2017-10-01T06:42:20.514Z,19.20
2017-10-01T06:44:46.761Z,22.73
2017-10-01T06:47:13.059Z,21.00
2017-10-01T06:49:40.101Z,27.17
2017-10-01T06:52:06.390Z,25.10
2017-10-01T06:54:32.652Z,23.93
2017-10-01T06:56:59.673Z,21.60
2017-10-01T06:59:26.741Z,24.57
2017-10-01T07:01:53.790Z,21.07
2017-10-01T07:04:20.798Z,28.30
2017-10-01T07:06:47.100Z,31.70
2017-10-01T07:09:13.367Z,26.03
2017-10-01T07:11:39.642Z,24.20
2017-10-01T07:14:06.293Z,29.77
2017-10-01T07:16:32.571Z,26.87
2017-10-01T07:18:58.873Z,31.63
2017-10-01T07:21:25.491Z,24.07
2017-10-01T07:23:51.887Z,33.40
2017-10-01T07:26:18.114Z,28.23
2017-10-01T07:28:44.367Z,37.33
2017-10-01T07:31:11.358Z,28.53
2017-10-01T07:33:37.582Z,30.60
2017-10-01T07:36:03.839Z,31.57
2017-10-01T07:38:30.061Z,35.20
2017-10-01T07:40:56.372Z,33.47
2017-10-01T07:43:22.603Z,32.03
2017-10-01T07:45:48.930Z,26.20
2017-10-01T07:48:15.244Z,24.50
2017-10-01T07:50:41.588Z,31.50
2017-10-01T07:53:07.852Z,28.00
2017-10-01T07:55:34.098Z,29.07
2017-10-01T07:58:01.469Z,27.33
2017-10-01T08:00:27.793Z,31.90
2017-10-01T08:02:54.044Z,29.47
2017-10-01T08:05:20.747Z,27.03
2017-10-01T08:07:46.967Z,36.83
2017-10-01T08:10:13.239Z,28.23
2017-10-01T08:12:39.487Z,32.80
2017-10-01T08:15:05.730Z,26.10
2017-10-01T08:17:32.025Z,27.83
2017-10-01T08:19:58.329Z,22.10
2017-10-01T08:22:25.382Z,22.90
2017-10-01T08:24:53.083Z,21.20
2017-10-01T08:27:19.417Z,25.80
2017-10-01T08:29:45.718Z,31.10
2017-10-01T08:32:12.004Z,21.20
2017-10-01T08:34:38.385Z,18.17
2017-10-01T08:37:04.671Z,26.67
2017-10-01T08:39:30.903Z,21.43
2017-10-01T08:41:57.540Z,24.13
2017-10-01T08:44:23.827Z,21.10
2017-10-01T08:46:50.056Z,19.17
2017-10-01T08:49:23.236Z,27.47
2017-10-01T08:51:49.514Z,19.63
2017-10-01T08:54:15.794Z,23.03
2017-10-01T08:56:42.494Z,19.17
2017-10-01T08:59:08.730Z,22.80
2017-10-01T09:01:36.373Z,16.13
2017-10-01T09:04:03.010Z,18.60
2017-10-01T09:06:29.281Z,15.87
2017-10-01T09:08:55.528Z,23.50
2017-10-01T09:11:21.759Z,16.30
2017-10-01T09:13:48.113Z,20.67
2017-10-01T09:16:14.428Z,18.37
2017-10-01T09:18:40.678Z,27.83
2017-10-01T09:21:06.927Z,21.43
2017-10-01T09:23:33.216Z,17.20
2017-10-01T09:25:59.843Z,15.67
2017-10-01T09:28:26.063Z,21.67
2017-10-01T09:30:52.372Z,23.10
2017-10-01T09:33:19.476Z,17.47
2017-10-01T09:35:45.774Z,22.60
2017-10-01T09:38:11.998Z,19.63
2017-10-01T09:40:38.282Z,18.03
2017-10-01T09:43:04.611Z,24.90
2017-10-01T09:45:30.893Z,19.53
2017-10-01T09:47:57.201Z,23.47
2017-10-01T09:50:24.246Z,22.27
2017-10-01T09:52:51.238Z,21.93
2017-10-01T09:55:17.656Z,25.07
2017-10-01T09:57:43.895Z,22.10
2017-10-01T10:00:10.112Z,21.07
2017-10-01T10:02:36.853Z,19.37
2017-10-01T10:05:03.156Z,22.37
2017-10-01T10:07:30.147Z,20.97
2017-10-01T10:09:56.456Z,17.90
2017-10-01T10:12:22.738Z,22.60
2017-10-01T10:14:49.025Z,22.57
2017-10-01T10:17:15.349Z,26.07
2017-10-01T10:19:41.637Z,18.43
2017-10-01T10:22:08.648Z,19.00
2017-10-01T10:24:34.963Z,24.53
2017-10-01T10:27:01.217Z,27.83
2017-10-01T10:29:27.492Z,20.73
2017-10-01T10:31:53.804Z,17.80
2017-10-01T10:34:20.827Z,20.03
2017-10-01T10:36:47.063Z,18.90
2017-10-01T10:39:13.337Z,19.43
2017-10-01T10:41:39.641Z,19.57
2017-10-01T10:44:06.647Z,17.47
2017-10-01T10:46:33.257Z,15.97
2017-10-01T10:48:59.514Z,12.90
2017-10-01T10:51:25.813Z,15.07
2017-10-01T10:53:52.091Z,12.50
2017-10-01T10:56:18.371Z,13.40
2017-10-01T10:58:44.627Z,15.33
2017-10-01T11:01:10.938Z,10.20
2017-10-01T11:03:37.181Z,11.73
2017-10-01T11:06:03.478Z,9.80
2017-10-01T11:08:29.778Z,10.30
2017-10-01T11:10:56.054Z,16.87
2017-10-01T11:13:22.319Z,13.13
2017-10-01T11:15:48.975Z,11.30
2017-10-01T11:18:15.273Z,10.00
2017-10-01T11:20:41.597Z,13.23
2017-10-01T11:23:07.890Z,11.60
2017-10-01T11:25:34.935Z,9.63
2017-10-01T11:28:02.013Z,13.20
2017-10-01T11:30:28.333Z,16.50
2017-10-01T11:32:54.937Z,9.17
2017-10-01T11:35:21.202Z,11.37
2017-10-01T11:37:47.458Z,18.07
2017-10-01T11:40:13.731Z,8.57
2017-10-01T11:42:39.986Z,8.90
2017-10-01T11:45:06.315Z,9.90
2017-10-01T11:47:32.555Z,8.80
2017-10-01T11:49:58.827Z,8.10
2017-10-01T11:52:25.146Z,7.60
2017-10-01T11:54:51.417Z,11.87
2017-10-01T11:57:18.440Z,10.53
2017-10-01T11:59:44.695Z,9.13
2017-10-01T12:02:11.711Z,7.27
2017-10-01T12:04:38.440Z,10.50
2017-10-01T12:07:04.705Z,8.27
2017-10-01T12:09:31.737Z,10.40
2017-10-01T12:11:58.020Z,8.03
2017-10-01T12:14:24.251Z,11.17
2017-10-01T12:16:50.542Z,7.20
2017-10-01T12:19:17.564Z,9.43
2017-10-01T12:21:43.772Z,6.97
2017-10-01T12:24:10.025Z,9.00
2017-10-01T12:26:36.330Z,11.13
2017-10-01T12:29:02.615Z,7.53
2017-10-01T12:31:29.607Z,7.67
2017-10-01T12:33:55.978Z,9.37
2017-10-01T12:36:23.021Z,6.17
2017-10-01T12:38:50.012Z,5.57
2017-10-01T12:41:16.289Z,7.20
2017-10-01T12:43:42.546Z,9.50
2017-10-01T12:46:09.566Z,11.57
2017-10-01T12:48:36.641Z,7.40
2017-10-01T12:51:02.942Z,6.37
2017-10-01T12:53:29.215Z,7.77
2017-10-01T12:55:55.507Z,8.73
2017-10-01T12:58:21.765Z,5.60
2017-10-01T13:00:48.105Z,5.10
2017-10-01T13:03:14.389Z,4.90
2017-10-01T13:05:40.668Z,5.90
2017-10-01T13:08:06.927Z,6.50
2017-10-01T13:10:33.184Z,6.17
2017-10-01T13:12:59.500Z,7.70
2017-10-01T13:15:25.778Z,7.50
2017-10-01T13:17:52.038Z,7.87
2017-10-01T13:20:18.251Z,6.63
2017-10-01T13:22:44.499Z,11.43
2017-10-01T13:25:10.793Z,7.80
2017-10-01T13:27:37.091Z,8.73
2017-10-01T13:30:03.393Z,8.87
2017-10-01T13:32:30.634Z,7.40
2017-10-01T13:34:56.879Z,13.10
2017-10-01T13:37:23.111Z,9.50
2017-10-01T13:39:49.334Z,5.93
2017-10-01T13:42:15.591Z,11.93
2017-10-01T13:44:42.669Z,6.57
2017-10-01T13:47:09.018Z,5.07
2017-10-01T13:49:35.306Z,6.50
2017-10-01T13:52:01.564Z,8.77
2017-10-01T13:54:27.835Z,9.10
2017-10-01T13:56:54.087Z,10.60
2017-10-01T13:59:20.383Z,7.80
2017-10-01T14:01:46.680Z,7.57
2017-10-01T14:04:12.971Z,7.80
2017-10-01T14:06:39.238Z,6.63
2017-10-01T14:09:05.455Z,12.00
2017-10-01T14:11:32.487Z,9.60
2017-10-01T14:13:59.545Z,6.97
2017-10-01T14:16:26.559Z,7.30
2017-10-01T14:18:52.769Z,4.83
2017-10-01T14:21:19.009Z,5.43
2017-10-01T14:23:45.334Z,15.70
2017-10-01T14:26:11.631Z,4.90
2017-10-01T14:28:37.878Z,4.40
2017-10-01T14:31:10.301Z,5.90
2017-10-01T14:33:37.255Z,4.70
2017-10-01T14:36:04.266Z,3.93
2017-10-01T14:38:30.550Z,5.27
2017-10-01T14:40:56.876Z,10.17
2017-10-01T14:43:23.138Z,4.27
2017-10-01T14:45:49.409Z,4.80
2017-10-01T14:48:16.435Z,6.43
2017-10-01T14:50:42.693Z,4.73
2017-10-01T14:53:09.699Z,5.80
2017-10-01T14:55:35.972Z,9.73
2017-10-01T14:58:02.979Z,7.30
2017-10-01T15:00:29.253Z,5.73
2017-10-01T15:02:56.231Z,8.70
2017-10-01T15:05:22.482Z,4.97
2017-10-01T15:07:48.746Z,6.20
2017-10-01T15:10:15.065Z,9.87
2017-10-01T15:12:41.401Z,5.10
2017-10-01T15:15:08.410Z,4.70
2017-10-01T15:17:34.678Z,8.40
2017-10-01T15:20:01.747Z,4.30
2017-10-01T15:22:28.758Z,10.30
2017-10-01T15:24:54.990Z,6.13
2017-10-01T15:27:21.239Z,9.30
2017-10-01T15:29:48.234Z,4.43
2017-10-01T15:32:14.487Z,6.17
2017-10-01T15:34:40.981Z,8.80
2017-10-01T15:37:07.248Z,4.50
2017-10-01T15:39:33.512Z,8.03
2017-10-01T15:42:00.540Z,3.50
2017-10-01T15:44:27.544Z,5.97
2017-10-01T15:46:53.815Z,4.10
2017-10-01T15:49:20.083Z,4.10
2017-10-01T15:51:46.346Z,3.43
2017-10-01T15:54:12.611Z,3.90
2017-10-01T15:56:38.929Z,8.97
2017-10-01T15:59:05.163Z,7.03
2017-10-01T16:01:31.434Z,9.83
2017-10-01T16:03:57.709Z,3.80
2017-10-01T16:06:23.937Z,5.40
2017-10-01T16:08:50.182Z,8.57
2017-10-01T16:11:16.470Z,6.13
2017-10-01T16:13:42.714Z,6.17
2017-10-01T16:16:09.003Z,6.07
2017-10-01T16:18:35.322Z,4.30
2017-10-01T16:21:02.366Z,4.67
2017-10-01T16:23:29.374Z,4.60
2017-10-01T16:25:55.682Z,4.17
2017-10-01T16:28:21.996Z,9.13
2017-10-01T16:30:48.324Z,9.83
2017-10-01T16:33:14.577Z,5.60
2017-10-01T16:35:40.804Z,6.63
2017-10-01T16:38:07.017Z,5.90
2017-10-01T16:40:33.250Z,9.30
2017-10-01T16:42:59.569Z,8.77
2017-10-01T16:45:25.921Z,9.97
2017-10-01T16:47:52.254Z,9.90
2017-10-01T16:50:18.503Z,9.30
2017-10-01T16:52:44.777Z,10.70
2017-10-01T16:55:11.771Z,9.40
2017-10-01T16:57:38.017Z,13.40
2017-10-01T17:00:04.282Z,12.67
2017-10-01T17:02:31.293Z,9.97
2017-10-01T17:04:57.619Z,9.60
2017-10-01T17:07:23.904Z,7.77
2017-10-01T17:09:50.143Z,8.90
2017-10-01T17:12:16.420Z,9.83
2017-10-01T17:14:42.701Z,12.30
2017-10-01T17:17:08.979Z,13.40
2017-10-01T17:19:35.250Z,18.53
2017-10-01T17:22:01.575Z,10.50
2017-10-01T17:24:27.844Z,11.20
2017-10-01T17:26:54.147Z,9.97
2017-10-01T17:29:20.497Z,6.83
2017-10-01T17:31:46.821Z,12.17
2017-10-01T17:34:13.142Z,10.53
2017-10-01T17:36:39.413Z,11.40
2017-10-01T17:39:05.681Z,11.50
2017-10-01T17:41:32.660Z,8.90
2017-10-01T17:43:58.931Z,11.83
2017-10-01T17:46:26.024Z,17.60
2017-10-01T17:48:52.289Z,10.03
2017-10-01T17:51:18.563Z,8.93
2017-10-01T17:53:44.917Z,14.60
2017-10-01T17:56:11.230Z,16.40
2017-10-01T17:58:37.549Z,12.70
2017-10-01T18:01:03.823Z,14.87
2017-10-01T18:03:30.164Z,17.80
2017-10-01T18:05:56.474Z,10.90
2017-10-01T18:08:22.943Z,14.10
2017-10-01T18:10:50.456Z,16.60
2017-10-01T20:14:51.602Z,13.57
2017-10-01T20:17:18.609Z,15.13
2017-10-01T20:19:45.685Z,15.03
2017-10-01T20:22:12.663Z,13.93
2017-10-01T20:24:38.935Z,26.03
2017-10-01T20:27:05.925Z,20.53
2017-10-01T20:29:32.232Z,12.40
2017-10-01T20:31:59.324Z,16.03
2017-10-01T20:34:25.571Z,18.63
2017-10-01T20:36:51.890Z,14.63
2017-10-01T20:39:18.166Z,21.20
2017-10-01T20:41:45.185Z,18.67
2017-10-01T20:44:11.514Z,22.90
2017-10-01T20:46:37.727Z,14.17
2017-10-01T20:49:04.022Z,12.60
2017-10-01T20:51:30.331Z,15.57
2017-10-01T20:53:57.406Z,17.13
2017-10-01T20:56:23.717Z,17.07
2017-10-01T20:58:50.753Z,14.63
2017-10-01T21:01:17.045Z,14.13
2017-10-01T21:03:43.275Z,13.13
2017-10-01T21:06:09.602Z,16.93
2017-10-01T21:08:35.926Z,13.13
2017-10-01T21:11:02.280Z,16.40
2017-10-01T21:13:28.629Z,34.30
2017-10-01T21:15:54.909Z,13.47
2017-10-01T21:18:21.191Z,20.53
2017-10-01T21:20:47.506Z,13.90
2017-10-01T21:23:13.821Z,12.33
2017-10-01T21:25:40.040Z,12.43
2017-10-01T21:28:06.299Z,11.53
2017-10-01T21:30:32.587Z,11.60
2017-10-01T21:32:58.877Z,17.33
2017-10-01T21:35:25.917Z,18.20
2017-10-01T21:37:52.295Z,26.73
2017-10-01T21:40:18.561Z,24.67
2017-10-01T21:42:45.617Z,12.60
2017-10-01T21:45:11.878Z,14.63
2017-10-01T21:47:38.873Z,16.00
2017-10-01T21:50:05.149Z,11.20
2017-10-01T21:52:32.175Z,9.77
2017-10-01T21:54:58.430Z,16.63
2017-10-01T21:57:25.469Z,12.37
2017-10-01T21:59:52.419Z,11.23
2017-10-01T22:02:19.500Z,17.50
2017-10-01T22:04:45.784Z,16.90
2017-10-01T22:07:12.093Z,12.17
2017-10-01T22:09:39.088Z,11.17
2017-10-01T22:12:05.362Z,15.27
2017-10-01T22:14:31.623Z,12.70
2017-10-01T22:16:57.890Z,13.23
2017-10-01T22:19:24.188Z,16.67
2017-10-01T22:21:51.166Z,30.73
2017-10-01T22:24:17.509Z,11.37
2017-10-01T22:26:43.793Z,14.27
2017-10-01T22:29:10.852Z,10.63
2017-10-01T22:31:37.834Z,15.80
2017-10-01T22:34:04.083Z,17.03
2017-10-01T22:36:30.294Z,12.23
2017-10-01T22:38:56.582Z,15.07
2017-10-01T22:41:22.893Z,11.97
2017-10-01T22:43:49.176Z,13.23
2017-10-01T22:46:15.496Z,13.00
2017-10-01T22:48:41.799Z,11.63
2017-10-01T22:51:08.810Z,10.27
2017-10-01T22:53:35.022Z,12.70
2017-10-01T22:56:01.742Z,13.90
2017-10-01T22:58:27.990Z,19.40
2017-10-01T23:00:54.223Z,14.27
2017-10-01T23:03:20.504Z,17.40
2017-10-01T23:05:47.489Z,16.57
2017-10-01T23:08:13.781Z,15.30
2017-10-01T23:10:40.873Z,16.27
2017-10-01T23:13:07.118Z,11.63
2017-10-01T23:15:33.446Z,13.57
2017-10-01T23:17:59.713Z,14.13
2017-10-01T23:20:26.724Z,13.97
2017-10-01T23:22:53.033Z,12.37
2017-10-01T23:25:19.294Z,13.10
2017-10-01T23:27:45.529Z,11.53
2017-10-01T23:30:11.792Z,11.10
2017-10-01T23:32:38.010Z,12.13
2017-10-01T23:35:04.978Z,13.73
2017-10-01T23:37:31.223Z,12.50
2017-10-01T23:39:57.520Z,15.27
2017-10-01T23:42:24.524Z,16.17
2017-10-01T23:44:50.771Z,11.10
2017-10-01T23:47:17.062Z,11.07
2017-10-01T23:49:43.325Z,12.17
2017-10-01T23:52:09.570Z,19.90
2017-10-01T23:54:36.618Z,15.50
